Framingham Center, Massachusetts
Current Conditions -  °F | °C
As of 11:56 AM on Thursday 30 Oct 2014 (Local Time) from KBED Reporting Station
Scattered Clouds Scattered Clouds  
Wind Chill: 56°   Ceiling: Unl
Heat Index: 56°   Visibility: 10mi
Dew Point: 41°   Wind: 12mph
Humidity: 57%   Direction: 330°NNW
Pressure: 29.92"   Gusts: NA
Location:  42.3203°N, 71.4404°W
Report Text: KBED 301556Z 33010KT 10SM SCT080 13/05 A2992 RMK AO2 SLP144 T01330050
Loading
Personal Weather Stations






























Interactive Weather Map
Tropical Storm Tracking
New forecast layout! Learn more

10-Day Weather Forecast

Advertisements
Track Severe Weather on mobile